sensor_id;sensor_type;location;lat;lon;timestamp;P1;durP1;ratioP1;P2;durP2;ratioP2
26181;SDS011;13927;51.534;11.866;2024-02-14T00:01:05;4.78;;;2.47;;
26181;SDS011;13927;51.534;11.866;2024-02-14T00:03:33;5.95;;;3.17;;
26181;SDS011;13927;51.534;11.866;2024-02-14T00:06:00;5.88;;;3.30;;
26181;SDS011;13927;51.534;11.866;2024-02-14T00:08:25;6.00;;;3.15;;
26181;SDS011;13927;51.534;11.866;2024-02-14T00:10:51;5.47;;;3.05;;
26181;SDS011;13927;51.534;11.866;2024-02-14T00:13:17;5.22;;;3.17;;
26181;SDS011;13927;51.534;11.866;2024-02-14T00:15:43;6.38;;;2.75;;
26181;SDS011;13927;51.534;11.866;2024-02-14T00:18:09;5.80;;;2.80;;
26181;SDS011;13927;51.534;11.866;2024-02-14T00:20:35;5.25;;;2.90;;
26181;SDS011;13927;51.534;11.866;2024-02-14T00:23:01;3.92;;;2.35;;
26181;SDS011;13927;51.534;11.866;2024-02-14T00:25:27;5.18;;;2.83;;
26181;SDS011;13927;51.534;11.866;2024-02-14T00:27:52;5.47;;;3.08;;
26181;SDS011;13927;51.534;11.866;2024-02-14T00:30:19;4.72;;;2.72;;
26181;SDS011;13927;51.534;11.866;2024-02-14T00:32:45;3.42;;;2.30;;
26181;SDS011;13927;51.534;11.866;2024-02-14T00:35:12;6.38;;;3.50;;
26181;SDS011;13927;51.534;11.866;2024-02-14T00:37:38;3.33;;;2.47;;
26181;SDS011;13927;51.534;11.866;2024-02-14T00:40:04;5.20;;;2.80;;
26181;SDS011;13927;51.534;11.866;2024-02-14T00:42:31;6.05;;;2.85;;
26181;SDS011;13927;51.534;11.866;2024-02-14T00:44:56;4.70;;;3.05;;
26181;SDS011;13927;51.534;11.866;2024-02-14T00:47:22;8.48;;;4.65;;
26181;SDS011;13927;51.534;11.866;2024-02-14T00:49:48;5.93;;;3.78;;
26181;SDS011;13927;51.534;11.866;2024-02-14T00:52:13;7.45;;;3.85;;
26181;SDS011;13927;51.534;11.866;2024-02-14T00:54:39;4.43;;;2.85;;
26181;SDS011;13927;51.534;11.866;2024-02-14T00:57:05;6.63;;;3.60;;
26181;SDS011;13927;51.534;11.866;2024-02-14T00:59:30;5.47;;;2.95;;
26181;SDS011;13927;51.534;11.866;2024-02-14T01:01:56;6.68;;;2.67;;
26181;SDS011;13927;51.534;11.866;2024-02-14T01:04:22;8.15;;;3.38;;
26181;SDS011;13927;51.534;11.866;2024-02-14T01:06:47;6.28;;;3.20;;
26181;SDS011;13927;51.534;11.866;2024-02-14T01:09:14;6.35;;;2.90;;
26181;SDS011;13927;51.534;11.866;2024-02-14T01:11:41;4.55;;;2.83;;
26181;SDS011;13927;51.534;11.866;2024-02-14T01:14:07;5.63;;;2.60;;
26181;SDS011;13927;51.534;11.866;2024-02-14T01:16:33;5.95;;;2.80;;
26181;SDS011;13927;51.534;11.866;2024-02-14T01:18:59;4.30;;;2.50;;
26181;SDS011;13927;51.534;11.866;2024-02-14T01:21:24;6.80;;;3.05;;
26181;SDS011;13927;51.534;11.866;2024-02-14T01:23:50;4.75;;;2.55;;
26181;SDS011;13927;51.534;11.866;2024-02-14T01:26:17;6.07;;;2.65;;
26181;SDS011;13927;51.534;11.866;2024-02-14T01:28:42;4.78;;;2.88;;
26181;SDS011;13927;51.534;11.866;2024-02-14T01:31:09;3.72;;;2.20;;
26181;SDS011;13927;51.534;11.866;2024-02-14T01:33:36;3.80;;;2.78;;
26181;SDS011;13927;51.534;11.866;2024-02-14T01:36:03;4.75;;;2.90;;
26181;SDS011;13927;51.534;11.866;2024-02-14T01:38:29;6.50;;;2.90;;
26181;SDS011;13927;51.534;11.866;2024-02-14T01:40:58;4.57;;;2.70;;
26181;SDS011;13927;51.534;11.866;2024-02-14T01:43:24;3.72;;;2.50;;
26181;SDS011;13927;51.534;11.866;2024-02-14T01:45:50;7.03;;;3.40;;
26181;SDS011;13927;51.534;11.866;2024-02-14T01:48:16;7.78;;;3.17;;
26181;SDS011;13927;51.534;11.866;2024-02-14T01:50:43;8.57;;;3.75;;
26181;SDS011;13927;51.534;11.866;2024-02-14T01:53:10;4.38;;;2.95;;
26181;SDS011;13927;51.534;11.866;2024-02-14T01:55:37;6.05;;;3.58;;
26181;SDS011;13927;51.534;11.866;2024-02-14T01:58:03;5.90;;;3.38;;
26181;SDS011;13927;51.534;11.866;2024-02-14T02:00:29;6.68;;;3.47;;
26181;SDS011;13927;51.534;11.866;2024-02-14T02:02:56;6.43;;;2.60;;
26181;SDS011;13927;51.534;11.866;2024-02-14T02:05:23;5.35;;;2.53;;
26181;SDS011;13927;51.534;11.866;2024-02-14T02:07:48;5.38;;;2.65;;
26181;SDS011;13927;51.534;11.866;2024-02-14T02:10:14;4.45;;;2.72;;
26181;SDS011;13927;51.534;11.866;2024-02-14T02:12:41;3.63;;;2.38;;
26181;SDS011;13927;51.534;11.866;2024-02-14T02:15:07;5.28;;;2.65;;
26181;SDS011;13927;51.534;11.866;2024-02-14T02:17:39;6.78;;;3.20;;
26181;SDS011;13927;51.534;11.866;2024-02-14T02:20:05;4.85;;;2.78;;
26181;SDS011;13927;51.534;11.866;2024-02-14T02:22:33;6.75;;;2.70;;
26181;SDS011;13927;51.534;11.866;2024-02-14T02:25:02;5.75;;;2.47;;
26181;SDS011;13927;51.534;11.866;2024-02-14T02:27:32;6.45;;;3.28;;
26181;SDS011;13927;51.534;11.866;2024-02-14T02:30:03;3.53;;;2.42;;
26181;SDS011;13927;51.534;11.866;2024-02-14T02:32:31;7.47;;;3.22;;
26181;SDS011;13927;51.534;11.866;2024-02-14T02:34:57;5.38;;;2.47;;
26181;SDS011;13927;51.534;11.866;2024-02-14T02:37:24;4.68;;;2.65;;
26181;SDS011;13927;51.534;11.866;2024-02-14T02:39:50;6.90;;;2.70;;
26181;SDS011;13927;51.534;11.866;2024-02-14T02:42:16;4.72;;;2.65;;
26181;SDS011;13927;51.534;11.866;2024-02-14T02:44:45;5.00;;;2.35;;
26181;SDS011;13927;51.534;11.866;2024-02-14T02:47:13;4.53;;;2.40;;
26181;SDS011;13927;51.534;11.866;2024-02-14T02:49:41;6.28;;;3.13;;
26181;SDS011;13927;51.534;11.866;2024-02-14T02:52:09;3.97;;;2.60;;
26181;SDS011;13927;51.534;11.866;2024-02-14T02:54:35;4.78;;;2.70;;
26181;SDS011;13927;51.534;11.866;2024-02-14T02:57:04;5.20;;;2.80;;
26181;SDS011;13927;51.534;11.866;2024-02-14T02:59:30;6.82;;;2.50;;
26181;SDS011;13927;51.534;11.866;2024-02-14T03:01:57;6.20;;;2.75;;
26181;SDS011;13927;51.534;11.866;2024-02-14T03:04:24;4.47;;;2.00;;
26181;SDS011;13927;51.534;11.866;2024-02-14T03:06:49;4.72;;;2.55;;
26181;SDS011;13927;51.534;11.866;2024-02-14T03:09:15;2.83;;;1.85;;
26181;SDS011;13927;51.534;11.866;2024-02-14T03:11:45;4.93;;;2.45;;
26181;SDS011;13927;51.534;11.866;2024-02-14T03:14:12;5.47;;;2.20;;
26181;SDS011;13927;51.534;11.866;2024-02-14T03:16:38;7.22;;;2.53;;
26181;SDS011;13927;51.534;11.866;2024-02-14T03:19:04;5.32;;;2.20;;
26181;SDS011;13927;51.534;11.866;2024-02-14T03:21:30;4.18;;;2.33;;
26181;SDS011;13927;51.534;11.866;2024-02-14T03:24:01;3.58;;;1.88;;
26181;SDS011;13927;51.534;11.866;2024-02-14T03:26:30;3.00;;;1.73;;
26181;SDS011;13927;51.534;11.866;2024-02-14T03:28:58;2.95;;;1.80;;
26181;SDS011;13927;51.534;11.866;2024-02-14T03:31:31;2.63;;;1.60;;
26181;SDS011;13927;51.534;11.866;2024-02-14T03:33:57;3.30;;;1.63;;
26181;SDS011;13927;51.534;11.866;2024-02-14T03:36:23;5.28;;;1.33;;
26181;SDS011;13927;51.534;11.866;2024-02-14T03:38:52;5.88;;;1.77;;
26181;SDS011;13927;51.534;11.866;2024-02-14T03:41:17;4.60;;;1.15;;
26181;SDS011;13927;51.534;11.866;2024-02-14T03:43:43;2.47;;;1.55;;
26181;SDS011;13927;51.534;11.866;2024-02-14T03:46:09;3.47;;;1.52;;
26181;SDS011;13927;51.534;11.866;2024-02-14T03:48:34;4.32;;;1.63;;
26181;SDS011;13927;51.534;11.866;2024-02-14T03:51:00;5.07;;;1.30;;
26181;SDS011;13927;51.534;11.866;2024-02-14T03:53:28;2.70;;;1.42;;
26181;SDS011;13927;51.534;11.866;2024-02-14T03:55:53;3.65;;;1.10;;
26181;SDS011;13927;51.534;11.866;2024-02-14T03:58:19;2.08;;;1.10;;
26181;SDS011;13927;51.534;11.866;2024-02-14T04:00:51;2.85;;;1.00;;
26181;SDS011;13927;51.534;11.866;2024-02-14T04:03:17;2.53;;;1.40;;
26181;SDS011;13927;51.534;11.866;2024-02-14T04:05:43;1.98;;;1.50;;
26181;SDS011;13927;51.534;11.866;2024-02-14T04:08:10;2.25;;;1.08;;
26181;SDS011;13927;51.534;11.866;2024-02-14T04:10:36;5.13;;;1.58;;
26181;SDS011;13927;51.534;11.866;2024-02-14T04:13:03;2.83;;;1.50;;
26181;SDS011;13927;51.534;11.866;2024-02-14T04:15:30;2.55;;;1.13;;
26181;SDS011;13927;51.534;11.866;2024-02-14T04:17:56;2.65;;;1.20;;
26181;SDS011;13927;51.534;11.866;2024-02-14T04:20:23;4.93;;;1.15;;
26181;SDS011;13927;51.534;11.866;2024-02-14T04:22:49;2.10;;;1.05;;
26181;SDS011;13927;51.534;11.866;2024-02-14T04:25:14;2.45;;;0.95;;
26181;SDS011;13927;51.534;11.866;2024-02-14T04:27:40;3.30;;;1.10;;
26181;SDS011;13927;51.534;11.866;2024-02-14T04:30:06;2.92;;;0.98;;
26181;SDS011;13927;51.534;11.866;2024-02-14T04:32:33;3.70;;;1.45;;
26181;SDS011;13927;51.534;11.866;2024-02-14T04:34:58;1.48;;;1.10;;
26181;SDS011;13927;51.534;11.866;2024-02-14T04:37:24;2.35;;;1.20;;
26181;SDS011;13927;51.534;11.866;2024-02-14T04:39:50;2.72;;;1.05;;
26181;SDS011;13927;51.534;11.866;2024-02-14T04:42:16;2.40;;;1.02;;
26181;SDS011;13927;51.534;11.866;2024-02-14T04:44:41;2.05;;;1.25;;
26181;SDS011;13927;51.534;11.866;2024-02-14T04:47:07;4.78;;;1.00;;
26181;SDS011;13927;51.534;11.866;2024-02-14T04:49:34;4.93;;;1.10;;
26181;SDS011;13927;51.534;11.866;2024-02-14T04:52:00;1.33;;;0.75;;
26181;SDS011;13927;51.534;11.866;2024-02-14T04:54:26;3.95;;;1.38;;
26181;SDS011;13927;51.534;11.866;2024-02-14T04:56:53;3.92;;;1.05;;
26181;SDS011;13927;51.534;11.866;2024-02-14T04:59:19;6.68;;;1.10;;
26181;SDS011;13927;51.534;11.866;2024-02-14T05:01:45;2.05;;;1.17;;
26181;SDS011;13927;51.534;11.866;2024-02-14T05:04:11;3.72;;;1.13;;
26181;SDS011;13927;51.534;11.866;2024-02-14T05:06:38;2.30;;;0.85;;
26181;SDS011;13927;51.534;11.866;2024-02-14T05:09:04;2.60;;;0.98;;
26181;SDS011;13927;51.534;11.866;2024-02-14T05:11:30;2.80;;;1.35;;
26181;SDS011;13927;51.534;11.866;2024-02-14T05:13:56;3.40;;;1.40;;
26181;SDS011;13927;51.534;11.866;2024-02-14T05:16:22;4.15;;;1.05;;
26181;SDS011;13927;51.534;11.866;2024-02-14T05:18:48;2.55;;;1.13;;
26181;SDS011;13927;51.534;11.866;2024-02-14T05:21:14;3.30;;;0.90;;
26181;SDS011;13927;51.534;11.866;2024-02-14T05:23:40;4.20;;;1.42;;
26181;SDS011;13927;51.534;11.866;2024-02-14T05:26:05;4.10;;;1.17;;
26181;SDS011;13927;51.534;11.866;2024-02-14T05:28:31;1.85;;;1.10;;
26181;SDS011;13927;51.534;11.866;2024-02-14T05:30:58;4.15;;;1.30;;
26181;SDS011;13927;51.534;11.866;2024-02-14T05:33:25;3.05;;;1.48;;
26181;SDS011;13927;51.534;11.866;2024-02-14T05:35:51;2.35;;;1.35;;
26181;SDS011;13927;51.534;11.866;2024-02-14T05:38:17;2.38;;;1.20;;
26181;SDS011;13927;51.534;11.866;2024-02-14T05:40:47;3.15;;;1.58;;
26181;SDS011;13927;51.534;11.866;2024-02-14T05:43:13;2.53;;;1.30;;
26181;SDS011;13927;51.534;11.866;2024-02-14T05:45:39;2.05;;;1.33;;
26181;SDS011;13927;51.534;11.866;2024-02-14T05:48:05;2.25;;;1.05;;
26181;SDS011;13927;51.534;11.866;2024-02-14T05:50:32;1.52;;;0.70;;
26181;SDS011;13927;51.534;11.866;2024-02-14T05:52:58;7.47;;;1.42;;
26181;SDS011;13927;51.534;11.866;2024-02-14T05:55:25;2.38;;;1.15;;
26181;SDS011;13927;51.534;11.866;2024-02-14T05:57:51;3.95;;;1.20;;
26181;SDS011;13927;51.534;11.866;2024-02-14T06:00:20;1.98;;;0.95;;
26181;SDS011;13927;51.534;11.866;2024-02-14T06:02:46;2.90;;;1.02;;
26181;SDS011;13927;51.534;11.866;2024-02-14T06:05:13;6.13;;;1.10;;
26181;SDS011;13927;51.534;11.866;2024-02-14T06:07:39;1.42;;;0.80;;
26181;SDS011;13927;51.534;11.866;2024-02-14T06:10:06;4.53;;;1.20;;
26181;SDS011;13927;51.534;11.866;2024-02-14T06:12:33;2.17;;;1.00;;
26181;SDS011;13927;51.534;11.866;2024-02-14T06:14:59;2.13;;;1.00;;
26181;SDS011;13927;51.534;11.866;2024-02-14T06:17:26;3.58;;;1.38;;
26181;SDS011;13927;51.534;11.866;2024-02-14T06:19:52;7.65;;;1.20;;
26181;SDS011;13927;51.534;11.866;2024-02-14T06:22:18;4.00;;;1.20;;
26181;SDS011;13927;51.534;11.866;2024-02-14T06:24:45;4.20;;;1.42;;
26181;SDS011;13927;51.534;11.866;2024-02-14T06:27:13;1.65;;;1.05;;
26181;SDS011;13927;51.534;11.866;2024-02-14T06:29:41;2.10;;;1.30;;
26181;SDS011;13927;51.534;11.866;2024-02-14T06:32:12;3.40;;;1.00;;
26181;SDS011;13927;51.534;11.866;2024-02-14T06:34:39;3.13;;;1.30;;
26181;SDS011;13927;51.534;11.866;2024-02-14T06:37:05;2.53;;;1.55;;
26181;SDS011;13927;51.534;11.866;2024-02-14T06:39:30;2.10;;;1.05;;
26181;SDS011;13927;51.534;11.866;2024-02-14T06:41:56;2.15;;;1.10;;
26181;SDS011;13927;51.534;11.866;2024-02-14T06:44:22;5.10;;;1.67;;
26181;SDS011;13927;51.534;11.866;2024-02-14T06:46:49;4.25;;;1.58;;
26181;SDS011;13927;51.534;11.866;2024-02-14T06:49:18;3.00;;;0.90;;
26181;SDS011;13927;51.534;11.866;2024-02-14T06:51:44;3.72;;;1.10;;
26181;SDS011;13927;51.534;11.866;2024-02-14T06:54:10;2.47;;;1.30;;
26181;SDS011;13927;51.534;11.866;2024-02-14T06:56:37;2.25;;;1.20;;
26181;SDS011;13927;51.534;11.866;2024-02-14T06:59:03;3.10;;;1.05;;
26181;SDS011;13927;51.534;11.866;2024-02-14T07:01:29;3.10;;;1.27;;
26181;SDS011;13927;51.534;11.866;2024-02-14T07:03:55;0.88;;;0.77;;
26181;SDS011;13927;51.534;11.866;2024-02-14T07:06:21;3.58;;;1.20;;
26181;SDS011;13927;51.534;11.866;2024-02-14T07:08:47;2.88;;;0.93;;
26181;SDS011;13927;51.534;11.866;2024-02-14T07:11:13;1.70;;;0.95;;
26181;SDS011;13927;51.534;11.866;2024-02-14T07:13:43;1.77;;;1.33;;
26181;SDS011;13927;51.534;11.866;2024-02-14T07:16:09;3.58;;;1.25;;
26181;SDS011;13927;51.534;11.866;2024-02-14T07:18:35;3.40;;;1.08;;
26181;SDS011;13927;51.534;11.866;2024-02-14T07:21:00;2.55;;;1.40;;
26181;SDS011;13927;51.534;11.866;2024-02-14T07:23:26;1.85;;;1.23;;
26181;SDS011;13927;51.534;11.866;2024-02-14T07:25:52;1.60;;;0.93;;
26181;SDS011;13927;51.534;11.866;2024-02-14T07:28:18;2.00;;;0.88;;
26181;SDS011;13927;51.534;11.866;2024-02-14T07:30:44;1.95;;;1.17;;
26181;SDS011;13927;51.534;11.866;2024-02-14T07:33:10;1.77;;;1.00;;
26181;SDS011;13927;51.534;11.866;2024-02-14T07:35:38;3.05;;;1.13;;
26181;SDS011;13927;51.534;11.866;2024-02-14T07:38:04;2.08;;;0.85;;
26181;SDS011;13927;51.534;11.866;2024-02-14T07:40:30;1.85;;;0.80;;
26181;SDS011;13927;51.534;11.866;2024-02-14T07:42:56;4.18;;;1.20;;
26181;SDS011;13927;51.534;11.866;2024-02-14T07:45:22;4.10;;;1.13;;
26181;SDS011;13927;51.534;11.866;2024-02-14T07:47:51;2.63;;;1.15;;
26181;SDS011;13927;51.534;11.866;2024-02-14T07:50:17;2.20;;;1.10;;
26181;SDS011;13927;51.534;11.866;2024-02-14T07:52:43;4.28;;;1.05;;
26181;SDS011;13927;51.534;11.866;2024-02-14T07:55:10;1.35;;;0.80;;
26181;SDS011;13927;51.534;11.866;2024-02-14T07:57:39;2.78;;;1.00;;
26181;SDS011;13927;51.534;11.866;2024-02-14T08:00:06;4.13;;;1.10;;
26181;SDS011;13927;51.534;11.866;2024-02-14T08:02:33;1.73;;;1.10;;
26181;SDS011;13927;51.534;11.866;2024-02-14T08:04:59;3.22;;;1.20;;
26181;SDS011;13927;51.534;11.866;2024-02-14T08:07:26;2.20;;;0.95;;
26181;SDS011;13927;51.534;11.866;2024-02-14T08:09:52;2.45;;;1.13;;
26181;SDS011;13927;51.534;11.866;2024-02-14T08:12:19;2.80;;;1.40;;
26181;SDS011;13927;51.534;11.866;2024-02-14T08:14:44;1.65;;;1.02;;
26181;SDS011;13927;51.534;11.866;2024-02-14T08:17:12;2.33;;;1.20;;
26181;SDS011;13927;51.534;11.866;2024-02-14T08:19:38;4.88;;;1.45;;
26181;SDS011;13927;51.534;11.866;2024-02-14T08:22:04;1.95;;;1.10;;
26181;SDS011;13927;51.534;11.866;2024-02-14T08:24:31;9.38;;;1.50;;
26181;SDS011;13927;51.534;11.866;2024-02-14T08:26:57;2.40;;;1.40;;
26181;SDS011;13927;51.534;11.866;2024-02-14T08:29:23;2.53;;;1.10;;
26181;SDS011;13927;51.534;11.866;2024-02-14T08:31:49;2.60;;;1.00;;
26181;SDS011;13927;51.534;11.866;2024-02-14T08:34:15;2.80;;;1.17;;
26181;SDS011;13927;51.534;11.866;2024-02-14T08:36:41;4.70;;;1.67;;
26181;SDS011;13927;51.534;11.866;2024-02-14T08:39:08;2.55;;;1.25;;
26181;SDS011;13927;51.534;11.866;2024-02-14T08:41:35;4.45;;;1.73;;
26181;SDS011;13927;51.534;11.866;2024-02-14T08:44:02;4.03;;;1.98;;
26181;SDS011;13927;51.534;11.866;2024-02-14T08:46:30;4.15;;;1.45;;
26181;SDS011;13927;51.534;11.866;2024-02-14T08:48:56;2.38;;;1.02;;
26181;SDS011;13927;51.534;11.866;2024-02-14T08:51:22;0.90;;;0.85;;
26181;SDS011;13927;51.534;11.866;2024-02-14T08:53:49;2.67;;;1.00;;
26181;SDS011;13927;51.534;11.866;2024-02-14T08:56:19;7.80;;;1.30;;
26181;SDS011;13927;51.534;11.866;2024-02-14T08:58:47;3.90;;;1.40;;
26181;SDS011;13927;51.534;11.866;2024-02-14T09:01:13;4.93;;;1.60;;
26181;SDS011;13927;51.534;11.866;2024-02-14T09:03:40;4.72;;;1.08;;
26181;SDS011;13927;51.534;11.866;2024-02-14T09:06:13;4.50;;;1.13;;
26181;SDS011;13927;51.534;11.866;2024-02-14T09:08:43;4.65;;;1.52;;
26181;SDS011;13927;51.534;11.866;2024-02-14T09:11:09;3.10;;;1.52;;
26181;SDS011;13927;51.534;11.866;2024-02-14T09:13:37;4.18;;;1.17;;
26181;SDS011;13927;51.534;11.866;2024-02-14T09:16:09;2.13;;;1.05;;
26181;SDS011;13927;51.534;11.866;2024-02-14T09:18:36;5.45;;;2.63;;
26181;SDS011;13927;51.534;11.866;2024-02-14T09:21:02;4.18;;;1.33;;
26181;SDS011;13927;51.534;11.866;2024-02-14T09:23:30;2.60;;;1.65;;
26181;SDS011;13927;51.534;11.866;2024-02-14T09:25:57;2.00;;;1.65;;
26181;SDS011;13927;51.534;11.866;2024-02-14T09:28:23;3.33;;;1.50;;
26181;SDS011;13927;51.534;11.866;2024-02-14T09:30:50;2.97;;;1.80;;
26181;SDS011;13927;51.534;11.866;2024-02-14T09:33:16;2.17;;;1.48;;
26181;SDS011;13927;51.534;11.866;2024-02-14T09:35:42;3.42;;;1.15;;
26181;SDS011;13927;51.534;11.866;2024-02-14T09:38:12;2.30;;;1.15;;
26181;SDS011;13927;51.534;11.866;2024-02-14T09:40:42;1.88;;;1.60;;
26181;SDS011;13927;51.534;11.866;2024-02-14T09:43:31;2.72;;;1.30;;
26181;SDS011;13927;51.534;11.866;2024-02-14T09:46:00;3.92;;;1.60;;
26181;SDS011;13927;51.534;11.866;2024-02-14T09:48:28;4.18;;;1.58;;
26181;SDS011;13927;51.534;11.866;2024-02-14T09:50:56;2.95;;;1.60;;
26181;SDS011;13927;51.534;11.866;2024-02-14T09:53:22;5.05;;;1.60;;
26181;SDS011;13927;51.534;11.866;2024-02-14T09:55:49;2.15;;;1.60;;
26181;SDS011;13927;51.534;11.866;2024-02-14T09:58:15;2.25;;;1.50;;
26181;SDS011;13927;51.534;11.866;2024-02-14T10:00:42;2.72;;;1.60;;
26181;SDS011;13927;51.534;11.866;2024-02-14T10:03:08;5.90;;;1.60;;
26181;SDS011;13927;51.534;11.866;2024-02-14T10:05:34;2.33;;;1.52;;
26181;SDS011;13927;51.534;11.866;2024-02-14T10:08:00;2.60;;;1.63;;
26181;SDS011;13927;51.534;11.866;2024-02-14T10:10:26;2.35;;;1.50;;
26181;SDS011;13927;51.534;11.866;2024-02-14T10:12:55;3.45;;;1.52;;
26181;SDS011;13927;51.534;11.866;2024-02-14T10:15:22;3.85;;;2.08;;
26181;SDS011;13927;51.534;11.866;2024-02-14T10:17:47;4.22;;;1.42;;
26181;SDS011;13927;51.534;11.866;2024-02-14T10:20:16;3.00;;;1.70;;
26181;SDS011;13927;51.534;11.866;2024-02-14T10:22:42;5.22;;;2.20;;
26181;SDS011;13927;51.534;11.866;2024-02-14T10:25:10;3.45;;;1.40;;
26181;SDS011;13927;51.534;11.866;2024-02-14T10:27:37;7.95;;;1.60;;
26181;SDS011;13927;51.534;11.866;2024-02-14T10:30:05;2.58;;;1.52;;
26181;SDS011;13927;51.534;11.866;2024-02-14T10:32:34;2.65;;;1.55;;
26181;SDS011;13927;51.534;11.866;2024-02-14T10:35:12;3.63;;;1.67;;
26181;SDS011;13927;51.534;11.866;2024-02-14T10:37:39;5.55;;;2.22;;
26181;SDS011;13927;51.534;11.866;2024-02-14T10:40:06;2.35;;;1.42;;
26181;SDS011;13927;51.534;11.866;2024-02-14T10:42:34;2.63;;;1.33;;
26181;SDS011;13927;51.534;11.866;2024-02-14T10:45:00;2.92;;;1.60;;
26181;SDS011;13927;51.534;11.866;2024-02-14T10:47:31;3.10;;;1.40;;
26181;SDS011;13927;51.534;11.866;2024-02-14T10:50:04;3.95;;;1.75;;
26181;SDS011;13927;51.534;11.866;2024-02-14T10:52:33;1.83;;;1.13;;
26181;SDS011;13927;51.534;11.866;2024-02-14T10:55:04;2.22;;;1.55;;
26181;SDS011;13927;51.534;11.866;2024-02-14T10:57:31;3.13;;;1.63;;
26181;SDS011;13927;51.534;11.866;2024-02-14T10:59:58;3.83;;;1.55;;
26181;SDS011;13927;51.534;11.866;2024-02-14T11:02:30;2.63;;;1.50;;
26181;SDS011;13927;51.534;11.866;2024-02-14T11:04:57;1.70;;;1.27;;
26181;SDS011;13927;51.534;11.866;2024-02-14T11:07:23;3.05;;;1.38;;
26181;SDS011;13927;51.534;11.866;2024-02-14T11:10:00;3.80;;;1.58;;
26181;SDS011;13927;51.534;11.866;2024-02-14T11:12:32;4.15;;;1.48;;
26181;SDS011;13927;51.534;11.866;2024-02-14T11:15:10;2.75;;;1.70;;
26181;SDS011;13927;51.534;11.866;2024-02-14T11:17:41;2.15;;;1.30;;
26181;SDS011;13927;51.534;11.866;2024-02-14T11:22:54;5.50;;;2.25;;
26181;SDS011;13927;51.534;11.866;2024-02-14T11:25:32;2.25;;;1.10;;
26181;SDS011;13927;51.534;11.866;2024-02-14T11:30:51;3.75;;;1.20;;
26181;SDS011;13927;51.534;11.866;2024-02-14T11:35:50;2.20;;;1.42;;
26181;SDS011;13927;51.534;11.866;2024-02-14T11:38:21;2.63;;;1.42;;
26181;SDS011;13927;51.534;11.866;2024-02-14T11:40:51;3.22;;;2.30;;
26181;SDS011;13927;51.534;11.866;2024-02-14T11:43:22;2.45;;;1.20;;
26181;SDS011;13927;51.534;11.866;2024-02-14T11:45:48;2.80;;;1.50;;
26181;SDS011;13927;51.534;11.866;2024-02-14T11:48:16;1.40;;;1.27;;
26181;SDS011;13927;51.534;11.866;2024-02-14T11:50:44;2.53;;;1.42;;
26181;SDS011;13927;51.534;11.866;2024-02-14T11:53:11;2.10;;;1.00;;
26181;SDS011;13927;51.534;11.866;2024-02-14T11:55:42;2.53;;;1.33;;
26181;SDS011;13927;51.534;11.866;2024-02-14T11:58:09;3.78;;;1.10;;
26181;SDS011;13927;51.534;11.866;2024-02-14T12:00:40;3.13;;;1.10;;
26181;SDS011;13927;51.534;11.866;2024-02-14T12:03:07;2.00;;;1.05;;
26181;SDS011;13927;51.534;11.866;2024-02-14T12:05:37;2.53;;;1.13;;
26181;SDS011;13927;51.534;11.866;2024-02-14T12:08:05;2.35;;;1.50;;
26181;SDS011;13927;51.534;11.866;2024-02-14T12:10:34;2.35;;;1.20;;
26181;SDS011;13927;51.534;11.866;2024-02-14T12:13:06;3.03;;;1.25;;
26181;SDS011;13927;51.534;11.866;2024-02-14T12:15:38;2.40;;;1.00;;
26181;SDS011;13927;51.534;11.866;2024-02-14T12:18:10;1.65;;;1.10;;
26181;SDS011;13927;51.534;11.866;2024-02-14T12:20:43;3.08;;;1.02;;
26181;SDS011;13927;51.534;11.866;2024-02-14T12:23:13;1.77;;;1.27;;
26181;SDS011;13927;51.534;11.866;2024-02-14T12:25:44;2.28;;;1.27;;
26181;SDS011;13927;51.534;11.866;2024-02-14T12:28:15;2.67;;;1.30;;
26181;SDS011;13927;51.534;11.866;2024-02-14T12:30:43;2.58;;;0.98;;
26181;SDS011;13927;51.534;11.866;2024-02-14T12:33:11;2.58;;;0.98;;
26181;SDS011;13927;51.534;11.866;2024-02-14T12:35:44;3.88;;;1.55;;
26181;SDS011;13927;51.534;11.866;2024-02-14T12:38:15;3.97;;;1.35;;
26181;SDS011;13927;51.534;11.866;2024-02-14T12:40:43;2.22;;;1.20;;
26181;SDS011;13927;51.534;11.866;2024-02-14T12:43:10;4.22;;;1.30;;
26181;SDS011;13927;51.534;11.866;2024-02-14T12:45:38;3.90;;;1.42;;
26181;SDS011;13927;51.534;11.866;2024-02-14T12:48:06;5.70;;;1.38;;
26181;SDS011;13927;51.534;11.866;2024-02-14T12:50:34;2.58;;;1.10;;
26181;SDS011;13927;51.534;11.866;2024-02-14T12:53:04;1.83;;;1.00;;
26181;SDS011;13927;51.534;11.866;2024-02-14T12:55:30;2.42;;;1.30;;
26181;SDS011;13927;51.534;11.866;2024-02-14T12:57:56;2.67;;;1.15;;
26181;SDS011;13927;51.534;11.866;2024-02-14T13:00:23;1.70;;;1.10;;
26181;SDS011;13927;51.534;11.866;2024-02-14T13:02:49;5.45;;;2.20;;
26181;SDS011;13927;51.534;11.866;2024-02-14T13:05:16;1.77;;;1.10;;
26181;SDS011;13927;51.534;11.866;2024-02-14T13:07:42;1.92;;;1.20;;
26181;SDS011;13927;51.534;11.866;2024-02-14T13:10:08;2.33;;;1.13;;
26181;SDS011;13927;51.534;11.866;2024-02-14T13:12:35;2.42;;;0.90;;
26181;SDS011;13927;51.534;11.866;2024-02-14T13:15:02;2.92;;;1.27;;
26181;SDS011;13927;51.534;11.866;2024-02-14T13:17:29;4.43;;;1.73;;
26181;SDS011;13927;51.534;11.866;2024-02-14T13:19:55;2.22;;;1.10;;
26181;SDS011;13927;51.534;11.866;2024-02-14T13:22:21;1.92;;;1.17;;
26181;SDS011;13927;51.534;11.866;2024-02-14T13:24:48;2.05;;;1.02;;
26181;SDS011;13927;51.534;11.866;2024-02-14T13:27:15;2.15;;;1.35;;
26181;SDS011;13927;51.534;11.866;2024-02-14T13:29:41;3.38;;;1.30;;
26181;SDS011;13927;51.534;11.866;2024-02-14T13:32:06;3.35;;;1.10;;
26181;SDS011;13927;51.534;11.866;2024-02-14T13:34:33;4.65;;;1.23;;
26181;SDS011;13927;51.534;11.866;2024-02-14T13:36:59;2.15;;;1.40;;
26181;SDS011;13927;51.534;11.866;2024-02-14T13:39:27;2.38;;;1.75;;
26181;SDS011;13927;51.534;11.866;2024-02-14T13:41:54;3.38;;;1.33;;
26181;SDS011;13927;51.534;11.866;2024-02-14T13:44:23;3.15;;;1.30;;
26181;SDS011;13927;51.534;11.866;2024-02-14T13:46:49;2.47;;;1.30;;
26181;SDS011;13927;51.534;11.866;2024-02-14T13:49:17;3.45;;;1.70;;
26181;SDS011;13927;51.534;11.866;2024-02-14T13:51:52;3.08;;;1.67;;
26181;SDS011;13927;51.534;11.866;2024-02-14T13:54:19;3.05;;;1.50;;
26181;SDS011;13927;51.534;11.866;2024-02-14T13:56:46;4.18;;;1.63;;
26181;SDS011;13927;51.534;11.866;2024-02-14T13:59:15;4.15;;;1.45;;
26181;SDS011;13927;51.534;11.866;2024-02-14T14:01:41;1.80;;;1.25;;
26181;SDS011;13927;51.534;11.866;2024-02-14T14:04:07;2.67;;;1.40;;
26181;SDS011;13927;51.534;11.866;2024-02-14T14:06:33;3.50;;;1.50;;
26181;SDS011;13927;51.534;11.866;2024-02-14T14:08:59;3.88;;;1.40;;
26181;SDS011;13927;51.534;11.866;2024-02-14T14:11:28;3.40;;;1.50;;
26181;SDS011;13927;51.534;11.866;2024-02-14T14:13:53;1.23;;;0.95;;
26181;SDS011;13927;51.534;11.866;2024-02-14T14:16:19;3.00;;;1.45;;
26181;SDS011;13927;51.534;11.866;2024-02-14T14:18:47;2.08;;;1.55;;
26181;SDS011;13927;51.534;11.866;2024-02-14T14:21:15;3.08;;;1.50;;
26181;SDS011;13927;51.534;11.866;2024-02-14T14:23:41;3.33;;;1.30;;
26181;SDS011;13927;51.534;11.866;2024-02-14T14:26:07;3.95;;;1.40;;
26181;SDS011;13927;51.534;11.866;2024-02-14T14:28:33;2.75;;;1.50;;
26181;SDS011;13927;51.534;11.866;2024-02-14T14:30:59;1.30;;;1.15;;
26181;SDS011;13927;51.534;11.866;2024-02-14T14:33:26;3.85;;;1.17;;
26181;SDS011;13927;51.534;11.866;2024-02-14T14:35:52;4.85;;;1.27;;
26181;SDS011;13927;51.534;11.866;2024-02-14T14:38:19;2.53;;;1.70;;
26181;SDS011;13927;51.534;11.866;2024-02-14T14:40:46;2.15;;;1.20;;